sensor_id;sensor_type;location;lat;lon;timestamp;pressure;altitude;pressure_sealevel;temperature;humidity
56038;BME280;41907;47.848;9.000;2023-09-19T00:00:06;95601.25;;;15.27;100.00
56038;BME280;41907;47.848;9.000;2023-09-19T00:02:32;95607.41;;;15.28;100.00
56038;BME280;41907;47.848;9.000;2023-09-19T00:04:58;95606.38;;;15.33;100.00
56038;BME280;41907;47.848;9.000;2023-09-19T00:07:23;95607.84;;;15.30;100.00
56038;BME280;41907;47.848;9.000;2023-09-19T00:09:49;95609.84;;;15.33;100.00
56038;BME280;41907;47.848;9.000;2023-09-19T00:12:14;95617.78;;;15.30;100.00
56038;BME280;41907;47.848;9.000;2023-09-19T00:14:40;95615.91;;;15.30;100.00
56038;BME280;41907;47.848;9.000;2023-09-19T00:17:05;95610.63;;;15.34;100.00
56038;BME280;41907;47.848;9.000;2023-09-19T00:19:34;95619.03;;;15.32;100.00
56038;BME280;41907;47.848;9.000;2023-09-19T00:21:59;95617.72;;;15.26;100.00
56038;BME280;41907;47.848;9.000;2023-09-19T00:24:25;95613.78;;;15.23;100.00
56038;BME280;41907;47.848;9.000;2023-09-19T00:26:53;95613.13;;;15.26;100.00
56038;BME280;41907;47.848;9.000;2023-09-19T00:29:19;95612.78;;;15.28;100.00
56038;BME280;41907;47.848;9.000;2023-09-19T00:31:45;95625.44;;;15.27;100.00
56038;BME280;41907;47.848;9.000;2023-09-19T00:34:10;95627.09;;;15.32;100.00
56038;BME280;41907;47.848;9.000;2023-09-19T00:36:37;95627.09;;;15.32;100.00
56038;BME280;41907;47.848;9.000;2023-09-19T00:39:05;95625.19;;;15.33;100.00
56038;BME280;41907;47.848;9.000;2023-09-19T00:41:34;95624.84;;;15.34;100.00
56038;BME280;41907;47.848;9.000;2023-09-19T00:44:02;95618.59;;;15.30;100.00
56038;BME280;41907;47.848;9.000;2023-09-19T00:46:28;95627.88;;;15.33;100.00
56038;BME280;41907;47.848;9.000;2023-09-19T00:48:54;95621.06;;;15.23;100.00
56038;BME280;41907;47.848;9.000;2023-09-19T00:51:20;95629.56;;;15.25;100.00
56038;BME280;41907;47.848;9.000;2023-09-19T00:53:48;95615.91;;;15.30;100.00
56038;BME280;41907;47.848;9.000;2023-09-19T00:56:14;95619.81;;;15.33;100.00
56038;BME280;41907;47.848;9.000;2023-09-19T00:58:44;95622.50;;;15.33;100.00
56038;BME280;41907;47.848;9.000;2023-09-19T01:01:09;95618.38;;;15.23;100.00
56038;BME280;41907;47.848;9.000;2023-09-19T01:03:37;95617.16;;;15.20;100.00
56038;BME280;41907;47.848;9.000;2023-09-19T01:06:02;95626.31;;;15.19;100.00
56038;BME280;41907;47.848;9.000;2023-09-19T01:08:27;95633.38;;;15.24;100.00
56038;BME280;41907;47.848;9.000;2023-09-19T01:11:11;95636.19;;;15.27;100.00
56038;BME280;41907;47.848;9.000;2023-09-19T01:16:10;95639.09;;;15.22;100.00
56038;BME280;41907;47.848;9.000;2023-09-19T01:18:50;95645.81;;;15.29;100.00
56038;BME280;41907;47.848;9.000;2023-09-19T01:21:22;95647.72;;;15.28;100.00
56038;BME280;41907;47.848;9.000;2023-09-19T01:31:42;95647.47;;;15.33;100.00
56038;BME280;41907;47.848;9.000;2023-09-19T01:34:08;95646.16;;;15.27;100.00
56038;BME280;41907;47.848;9.000;2023-09-19T01:36:38;95644.34;;;15.31;100.00
56038;BME280;41907;47.848;9.000;2023-09-19T01:39:09;95647.03;;;15.31;100.00
56038;BME280;41907;47.848;9.000;2023-09-19T01:42:01;95654.09;;;15.23;100.00
56038;BME280;41907;47.848;9.000;2023-09-19T01:47:32;95642.91;;;15.21;100.00
56038;BME280;41907;47.848;9.000;2023-09-19T01:50:02;95653.50;;;15.30;100.00
56038;BME280;41907;47.848;9.000;2023-09-19T01:52:36;95646.25;;;15.31;100.00
56038;BME280;41907;47.848;9.000;2023-09-19T01:55:09;95646.94;;;15.27;100.00
56038;BME280;41907;47.848;9.000;2023-09-19T01:57:42;95656.00;;;15.23;100.00
56038;BME280;41907;47.848;9.000;2023-09-19T02:00:11;95655.34;;;15.14;100.00
56038;BME280;41907;47.848;9.000;2023-09-19T02:02:40;95662.63;;;15.13;100.00
56038;BME280;41907;47.848;9.000;2023-09-19T02:05:07;95662.63;;;15.13;100.00
56038;BME280;41907;47.848;9.000;2023-09-19T02:07:33;95662.84;;;15.08;100.00
56038;BME280;41907;47.848;9.000;2023-09-19T02:09:58;95662.41;;;15.06;100.00
56038;BME280;41907;47.848;9.000;2023-09-19T02:12:25;95662.84;;;15.08;100.00
56038;BME280;41907;47.848;9.000;2023-09-19T02:14:51;95662.28;;;15.03;100.00
56038;BME280;41907;47.848;9.000;2023-09-19T02:17:16;95669.69;;;15.06;100.00
56038;BME280;41907;47.848;9.000;2023-09-19T02:19:42;95669.00;;;14.97;100.00
56038;BME280;41907;47.848;9.000;2023-09-19T02:22:07;95679.19;;;15.03;100.00
56038;BME280;41907;47.848;9.000;2023-09-19T02:24:38;95683.44;;;15.04;100.00
56038;BME280;41907;47.848;9.000;2023-09-19T02:27:04;95679.97;;;15.04;100.00
56038;BME280;41907;47.848;9.000;2023-09-19T02:29:31;95681.53;;;15.05;100.00
56038;BME280;41907;47.848;9.000;2023-09-19T02:31:57;95686.13;;;15.04;100.00
56038;BME280;41907;47.848;9.000;2023-09-19T02:34:22;95688.16;;;15.07;100.00
56038;BME280;41907;47.848;9.000;2023-09-19T02:36:48;95684.88;;;15.14;100.00
56038;BME280;41907;47.848;9.000;2023-09-19T02:39:14;95683.97;;;15.22;100.00
56038;BME280;41907;47.848;9.000;2023-09-19T02:41:39;95679.97;;;15.28;100.00
56038;BME280;41907;47.848;9.000;2023-09-19T02:44:07;95690.34;;;15.30;100.00
56038;BME280;41907;47.848;9.000;2023-09-19T02:46:33;95685.88;;;15.34;100.00
56038;BME280;41907;47.848;9.000;2023-09-19T02:48:58;95694.84;;;15.38;100.00
56038;BME280;41907;47.848;9.000;2023-09-19T02:51:24;95691.78;;;15.39;100.00
56038;BME280;41907;47.848;9.000;2023-09-19T02:53:50;95691.13;;;15.42;100.00
56038;BME280;41907;47.848;9.000;2023-09-19T02:56:18;95690.00;;;15.43;100.00
56038;BME280;41907;47.848;9.000;2023-09-19T02:58:44;95686.66;;;15.46;100.00
56038;BME280;41907;47.848;9.000;2023-09-19T03:01:12;95684.50;;;15.52;100.00
56038;BME280;41907;47.848;9.000;2023-09-19T03:03:37;95688.75;;;15.53;100.00
56038;BME280;41907;47.848;9.000;2023-09-19T03:06:05;95687.19;;;15.52;100.00
56038;BME280;41907;47.848;9.000;2023-09-19T03:08:31;95689.09;;;15.51;100.00
56038;BME280;41907;47.848;9.000;2023-09-19T03:11:03;95686.22;;;15.56;100.00
56038;BME280;41907;47.848;9.000;2023-09-19T03:13:28;95683.94;;;15.58;100.00
56038;BME280;41907;47.848;9.000;2023-09-19T03:15:56;95687.31;;;15.55;100.00
56038;BME280;41907;47.848;9.000;2023-09-19T03:18:26;95695.06;;;15.57;100.00
56038;BME280;41907;47.848;9.000;2023-09-19T03:20:57;95686.28;;;15.60;100.00
56038;BME280;41907;47.848;9.000;2023-09-19T03:23:26;95682.03;;;15.59;100.00
56038;BME280;41907;47.848;9.000;2023-09-19T03:25:53;95688.91;;;15.56;100.00
56038;BME280;41907;47.848;9.000;2023-09-19T03:28:18;95686.22;;;15.56;100.00
56038;BME280;41907;47.848;9.000;2023-09-19T03:30:45;95692.00;;;15.58;100.00
56038;BME280;41907;47.848;9.000;2023-09-19T03:33:11;95701.09;;;15.54;100.00
56038;BME280;41907;47.848;9.000;2023-09-19T03:35:37;95698.19;;;15.47;100.00
56038;BME280;41907;47.848;9.000;2023-09-19T03:38:03;95696.03;;;15.40;100.00
56038;BME280;41907;47.848;9.000;2023-09-19T03:40:29;95698.66;;;15.37;100.00
56038;BME280;41907;47.848;9.000;2023-09-19T03:42:55;95692.16;;;15.38;100.00
56038;BME280;41907;47.848;9.000;2023-09-19T03:45:20;95689.09;;;15.39;100.00
56038;BME280;41907;47.848;9.000;2023-09-19T03:47:46;95695.50;;;15.35;100.00
56038;BME280;41907;47.848;9.000;2023-09-19T03:50:15;95694.28;;;15.32;100.00
56038;BME280;41907;47.848;9.000;2023-09-19T03:52:44;95698.97;;;15.23;100.00
56038;BME280;41907;47.848;9.000;2023-09-19T03:55:09;95701.88;;;15.30;100.00
56038;BME280;41907;47.848;9.000;2023-09-19T03:57:35;95691.50;;;15.29;100.00
56038;BME280;41907;47.848;9.000;2023-09-19T04:00:01;95689.00;;;15.36;100.00
56038;BME280;41907;47.848;9.000;2023-09-19T04:02:27;95690.22;;;15.38;100.00
56038;BME280;41907;47.848;9.000;2023-09-19T04:04:58;95687.66;;;15.42;100.00
56038;BME280;41907;47.848;9.000;2023-09-19T04:07:24;95691.91;;;15.43;100.00
56038;BME280;41907;47.848;9.000;2023-09-19T04:09:51;95685.94;;;15.49;100.00
56038;BME280;41907;47.848;9.000;2023-09-19T04:12:18;95683.84;;;15.55;100.00
56038;BME280;41907;47.848;9.000;2023-09-19T04:14:44;95691.25;;;15.46;100.00
56038;BME280;41907;47.848;9.000;2023-09-19T04:17:09;95691.44;;;15.53;100.00
56038;BME280;41907;47.848;9.000;2023-09-19T04:19:36;95686.84;;;15.53;100.00
56038;BME280;41907;47.848;9.000;2023-09-19T04:22:01;95705.22;;;15.51;100.00
56038;BME280;41907;47.848;9.000;2023-09-19T04:24:26;95700.53;;;15.60;100.00
56038;BME280;41907;47.848;9.000;2023-09-19T04:26:52;95706.34;;;15.62;100.00
56038;BME280;41907;47.848;9.000;2023-09-19T04:29:17;95699.66;;;15.56;100.00
56038;BME280;41907;47.848;9.000;2023-09-19T04:31:44;95706.47;;;15.54;100.00
56038;BME280;41907;47.848;9.000;2023-09-19T04:34:11;95715.00;;;15.56;100.00
56038;BME280;41907;47.848;9.000;2023-09-19T04:36:41;95705.66;;;15.53;100.00
56038;BME280;41907;47.848;9.000;2023-09-19T04:39:07;95709.63;;;15.56;100.00
56038;BME280;41907;47.848;9.000;2023-09-19T04:41:32;95711.94;;;15.57;100.00
56038;BME280;41907;47.848;9.000;2023-09-19T04:43:59;95712.72;;;15.58;100.00
56038;BME280;41907;47.848;9.000;2023-09-19T04:46:24;95711.72;;;15.62;100.00
56038;BME280;41907;47.848;9.000;2023-09-19T04:48:50;95712.84;;;15.61;100.00
56038;BME280;41907;47.848;9.000;2023-09-19T04:51:15;95713.63;;;15.62;100.00
56038;BME280;41907;47.848;9.000;2023-09-19T04:53:40;95717.88;;;15.63;100.00
56038;BME280;41907;47.848;9.000;2023-09-19T04:56:06;95715.53;;;15.61;100.00
56038;BME280;41907;47.848;9.000;2023-09-19T04:58:33;95728.31;;;15.65;100.00
56038;BME280;41907;47.848;9.000;2023-09-19T05:00:59;95734.56;;;15.69;100.00
56038;BME280;41907;47.848;9.000;2023-09-19T05:03:24;95726.59;;;15.72;100.00
56038;BME280;41907;47.848;9.000;2023-09-19T05:05:50;95727.75;;;15.59;100.00
56038;BME280;41907;47.848;9.000;2023-09-19T05:08:15;95726.41;;;15.65;100.00
56038;BME280;41907;47.848;9.000;2023-09-19T05:10:40;95727.72;;;15.71;100.00
56038;BME280;41907;47.848;9.000;2023-09-19T05:13:06;95738.47;;;15.71;100.00
56038;BME280;41907;47.848;9.000;2023-09-19T05:15:33;95740.50;;;15.74;100.00
56038;BME280;41907;47.848;9.000;2023-09-19T05:17:58;95746.22;;;15.73;100.00
56038;BME280;41907;47.848;9.000;2023-09-19T05:20:24;95752.03;;;15.75;100.00
56038;BME280;41907;47.848;9.000;2023-09-19T05:23:09;95746.00;;;15.66;100.00
56038;BME280;41907;47.848;9.000;2023-09-19T05:25:37;95756.97;;;15.60;100.00
56038;BME280;41907;47.848;9.000;2023-09-19T05:28:03;95759.44;;;15.66;100.00
56038;BME280;41907;47.848;9.000;2023-09-19T05:30:31;95749.22;;;15.71;100.00
56038;BME280;41907;47.848;9.000;2023-09-19T05:32:57;95755.28;;;15.68;100.00
56038;BME280;41907;47.848;9.000;2023-09-19T05:35:23;95762.69;;;15.71;100.00
56038;BME280;41907;47.848;9.000;2023-09-19T05:37:52;95760.19;;;15.78;100.00
56038;BME280;41907;47.848;9.000;2023-09-19T05:40:18;95762.41;;;15.88;100.00
56038;BME280;41907;47.848;9.000;2023-09-19T05:42:44;95760.03;;;15.99;100.00
56038;BME280;41907;47.848;9.000;2023-09-19T05:45:10;95760.22;;;16.06;100.00
56038;BME280;41907;47.848;9.000;2023-09-19T05:47:42;95755.81;;;16.14;100.00
56038;BME280;41907;47.848;9.000;2023-09-19T05:50:09;95761.50;;;16.24;100.00
56038;BME280;41907;47.848;9.000;2023-09-19T05:52:38;95757.81;;;16.29;100.00
56038;BME280;41907;47.848;9.000;2023-09-19T05:55:04;95762.13;;;16.33;100.00
56038;BME280;41907;47.848;9.000;2023-09-19T05:57:32;95768.44;;;16.53;100.00
56038;BME280;41907;47.848;9.000;2023-09-19T05:59:57;95762.78;;;16.70;100.00
56038;BME280;41907;47.848;9.000;2023-09-19T06:02:23;95762.09;;;16.89;100.00
56038;BME280;41907;47.848;9.000;2023-09-19T06:04:48;95765.88;;;17.16;100.00
56038;BME280;41907;47.848;9.000;2023-09-19T06:07:14;95768.75;;;17.58;100.00
56038;BME280;41907;47.848;9.000;2023-09-19T06:09:40;95770.13;;;18.57;100.00
56038;BME280;41907;47.848;9.000;2023-09-19T06:12:06;95775.66;;;20.08;100.00
56038;BME280;41907;47.848;9.000;2023-09-19T06:14:31;95781.22;;;21.74;88.44
56038;BME280;41907;47.848;9.000;2023-09-19T06:16:56;95790.75;;;23.06;78.33
56038;BME280;41907;47.848;9.000;2023-09-19T06:19:22;95793.09;;;24.10;69.63
56038;BME280;41907;47.848;9.000;2023-09-19T06:21:48;95794.66;;;23.15;73.02
56038;BME280;41907;47.848;9.000;2023-09-19T06:24:14;95797.00;;;23.88;69.03
56038;BME280;41907;47.848;9.000;2023-09-19T06:26:40;95811.03;;;23.79;68.86
56038;BME280;41907;47.848;9.000;2023-09-19T06:29:05;95802.84;;;23.44;69.56
56038;BME280;41907;47.848;9.000;2023-09-19T06:31:32;95808.41;;;22.43;74.37
56038;BME280;41907;47.848;9.000;2023-09-19T06:33:58;95805.03;;;21.95;77.48
56038;BME280;41907;47.848;9.000;2023-09-19T06:36:23;95806.25;;;21.53;78.16
56038;BME280;41907;47.848;9.000;2023-09-19T06:38:49;95806.47;;;21.78;80.25
56038;BME280;41907;47.848;9.000;2023-09-19T06:41:16;95815.72;;;21.70;80.84
56038;BME280;41907;47.848;9.000;2023-09-19T06:43:43;95812.38;;;21.02;83.14
56038;BME280;41907;47.848;9.000;2023-09-19T06:46:09;95810.03;;;20.64;85.94
56038;BME280;41907;47.848;9.000;2023-09-19T06:48:35;95816.06;;;20.50;89.11
56038;BME280;41907;47.848;9.000;2023-09-19T06:51:00;95812.69;;;20.60;88.53
56038;BME280;41907;47.848;9.000;2023-09-19T06:53:27;95814.41;;;20.42;89.65
56038;BME280;41907;47.848;9.000;2023-09-19T06:55:52;95819.13;;;20.19;89.87
56038;BME280;41907;47.848;9.000;2023-09-19T06:58:18;95828.03;;;19.93;90.84
56038;BME280;41907;47.848;9.000;2023-09-19T07:00:44;95833.75;;;20.14;93.70
56038;BME280;41907;47.848;9.000;2023-09-19T07:03:11;95835.00;;;21.58;86.06
56038;BME280;41907;47.848;9.000;2023-09-19T07:05:39;95830.94;;;22.47;79.18
56038;BME280;41907;47.848;9.000;2023-09-19T07:08:08;95833.50;;;22.18;77.89
56038;BME280;41907;47.848;9.000;2023-09-19T07:10:36;95835.78;;;22.06;77.74
56038;BME280;41907;47.848;9.000;2023-09-19T07:13:05;95833.53;;;23.02;72.15
56038;BME280;41907;47.848;9.000;2023-09-19T07:15:38;95833.56;;;22.25;74.38
56038;BME280;41907;47.848;9.000;2023-09-19T07:18:16;95836.44;;;21.96;77.01
56038;BME280;41907;47.848;9.000;2023-09-19T07:20:46;95836.66;;;24.35;67.24
56038;BME280;41907;47.848;9.000;2023-09-19T07:23:21;95846.06;;;23.73;66.06
56038;BME280;41907;47.848;9.000;2023-09-19T07:25:51;95842.88;;;25.33;62.94
56038;BME280;41907;47.848;9.000;2023-09-19T07:28:16;95850.31;;;26.66;56.28
56038;BME280;41907;47.848;9.000;2023-09-19T07:30:42;95852.06;;;26.50;55.76
56038;BME280;41907;47.848;9.000;2023-09-19T07:33:08;95853.13;;;27.54;53.10
56038;BME280;41907;47.848;9.000;2023-09-19T07:35:36;95858.47;;;28.55;48.81
56038;BME280;41907;47.848;9.000;2023-09-19T07:38:02;95855.00;;;29.49;46.14
56038;BME280;41907;47.848;9.000;2023-09-19T07:40:28;95860.72;;;30.52;43.46
56038;BME280;41907;47.848;9.000;2023-09-19T07:42:56;95864.91;;;30.73;41.96
56038;BME280;41907;47.848;9.000;2023-09-19T07:45:22;95870.78;;;31.55;39.76
56038;BME280;41907;47.848;9.000;2023-09-19T07:47:49;95860.88;;;31.95;38.10
56038;BME280;41907;47.848;9.000;2023-09-19T07:50:18;95868.63;;;31.75;37.88
56038;BME280;41907;47.848;9.000;2023-09-19T07:52:44;95869.44;;;31.34;38.15
56038;BME280;41907;47.848;9.000;2023-09-19T07:55:10;95872.78;;;29.61;42.15
56038;BME280;41907;47.848;9.000;2023-09-19T07:57:37;95882.16;;;30.45;41.07
56038;BME280;41907;47.848;9.000;2023-09-19T08:00:03;95868.22;;;30.36;39.72
56038;BME280;41907;47.848;9.000;2023-09-19T08:02:39;95872.88;;;29.74;42.05
56038;BME280;41907;47.848;9.000;2023-09-19T08:05:14;95882.38;;;28.11;46.03
56038;BME280;41907;47.848;9.000;2023-09-19T08:07:44;95883.78;;;27.15;47.83
56038;BME280;41907;47.848;9.000;2023-09-19T08:10:17;95870.75;;;27.50;48.30
56038;BME280;41907;47.848;9.000;2023-09-19T08:12:46;95869.44;;;29.86;42.56
56038;BME280;41907;47.848;9.000;2023-09-19T08:15:16;95877.94;;;31.52;39.79
56038;BME280;41907;47.848;9.000;2023-09-19T08:17:42;95884.97;;;31.15;38.74
56038;BME280;41907;47.848;9.000;2023-09-19T08:20:09;95889.03;;;31.77;37.72
56038;BME280;41907;47.848;9.000;2023-09-19T08:22:48;95898.47;;;32.02;36.61
56038;BME280;41907;47.848;9.000;2023-09-19T08:25:17;95893.28;;;31.53;38.67
56038;BME280;41907;47.848;9.000;2023-09-19T08:27:43;95892.53;;;31.91;38.13
56038;BME280;41907;47.848;9.000;2023-09-19T08:30:13;95894.50;;;32.15;38.13
56038;BME280;41907;47.848;9.000;2023-09-19T08:32:39;95899.88;;;32.79;36.55
56038;BME280;41907;47.848;9.000;2023-09-19T08:35:08;95896.84;;;32.64;36.22
56038;BME280;41907;47.848;9.000;2023-09-19T08:37:34;95908.69;;;32.86;35.22
56038;BME280;41907;47.848;9.000;2023-09-19T08:39:59;95906.66;;;31.93;36.60
56038;BME280;41907;47.848;9.000;2023-09-19T08:42:25;95901.03;;;31.84;36.26
56038;BME280;41907;47.848;9.000;2023-09-19T08:44:50;95903.13;;;29.38;40.88
56038;BME280;41907;47.848;9.000;2023-09-19T08:47:16;95905.47;;;27.60;45.19
56038;BME280;41907;47.848;9.000;2023-09-19T08:50:01;95898.41;;;26.23;48.75
56038;BME280;41907;47.848;9.000;2023-09-19T08:52:34;95897.63;;;25.05;53.05
56038;BME280;41907;47.848;9.000;2023-09-19T08:55:02;95907.91;;;24.47;56.28
56038;BME280;41907;47.848;9.000;2023-09-19T08:57:36;95910.25;;;24.49;57.19
56038;BME280;41907;47.848;9.000;2023-09-19T09:00:07;95906.38;;;24.07;57.02
56038;BME280;41907;47.848;9.000;2023-09-19T09:02:38;95904.41;;;23.72;58.00
56038;BME280;41907;47.848;9.000;2023-09-19T09:05:10;95907.41;;;23.25;61.13
56038;BME280;41907;47.848;9.000;2023-09-19T09:07:40;95901.91;;;23.07;61.72
56038;BME280;41907;47.848;9.000;2023-09-19T09:10:06;95906.66;;;22.48;65.58
56038;BME280;41907;47.848;9.000;2023-09-19T09:12:32;95903.06;;;22.26;64.14
56038;BME280;41907;47.848;9.000;2023-09-19T09:14:58;95896.94;;;22.44;63.87
56038;BME280;41907;47.848;9.000;2023-09-19T09:17:26;95897.38;;;22.56;63.73
56038;BME280;41907;47.848;9.000;2023-09-19T09:19:52;95898.16;;;22.57;64.40
56038;BME280;41907;47.848;9.000;2023-09-19T09:22:18;95901.72;;;22.68;63.07
56038;BME280;41907;47.848;9.000;2023-09-19T09:27:19;95908.41;;;22.78;62.70
56038;BME280;41907;47.848;9.000;2023-09-19T09:29:46;95907.91;;;22.61;63.87
56038;BME280;41907;47.848;9.000;2023-09-19T09:32:22;95915.34;;;24.04;61.27
56038;BME280;41907;47.848;9.000;2023-09-19T09:34:56;95902.25;;;25.11;56.15
56038;BME280;41907;47.848;9.000;2023-09-19T09:37:22;95906.00;;;25.46;54.44
56038;BME280;41907;47.848;9.000;2023-09-19T09:39:57;95910.53;;;26.22;51.75
56038;BME280;41907;47.848;9.000;2023-09-19T09:42:43;95903.59;;;26.14;53.00
56038;BME280;41907;47.848;9.000;2023-09-19T09:45:12;95909.38;;;26.19;50.09
56038;BME280;41907;47.848;9.000;2023-09-19T09:47:47;95905.41;;;25.79;50.51
56038;BME280;41907;47.848;9.000;2023-09-19T09:50:31;95907.09;;;25.63;51.53
56038;BME280;41907;47.848;9.000;2023-09-19T09:53:03;95903.41;;;25.14;53.69
56038;BME280;41907;47.848;9.000;2023-09-19T09:58:25;95900.44;;;26.94;47.87
56038;BME280;41907;47.848;9.000;2023-09-19T10:00:58;95900.50;;;26.08;50.81
56038;BME280;41907;47.848;9.000;2023-09-19T10:03:40;95900.84;;;26.92;49.16
56038;BME280;41907;47.848;9.000;2023-09-19T10:06:13;95896.69;;;28.22;45.22
56038;BME280;41907;47.848;9.000;2023-09-19T10:09:04;95901.50;;;28.14;43.66
56038;BME280;41907;47.848;9.000;2023-09-19T10:11:57;95902.84;;;28.03;44.60
56038;BME280;41907;47.848;9.000;2023-09-19T10:14:31;95899.09;;;28.63;42.89
56038;BME280;41907;47.848;9.000;2023-09-19T10:16:59;95899.06;;;29.06;40.84
56038;BME280;41907;47.848;9.000;2023-09-19T10:19:33;95906.00;;;28.28;41.35
56038;BME280;41907;47.848;9.000;2023-09-19T10:22:01;95902.50;;;27.47;43.28
56038;BME280;41907;47.848;9.000;2023-09-19T10:24:28;95902.78;;;27.56;44.39
56038;BME280;41907;47.848;9.000;2023-09-19T10:26:54;95907.25;;;27.13;45.54
56038;BME280;41907;47.848;9.000;2023-09-19T10:29:21;95914.00;;;26.26;48.28
56038;BME280;41907;47.848;9.000;2023-09-19T10:31:50;95906.66;;;24.73;50.06
56038;BME280;41907;47.848;9.000;2023-09-19T10:34:19;95909.88;;;24.29;54.20
56038;BME280;41907;47.848;9.000;2023-09-19T10:36:46;95909.50;;;23.78;57.15
56038;BME280;41907;47.848;9.000;2023-09-19T10:39:14;95900.47;;;23.49;56.26
56038;BME280;41907;47.848;9.000;2023-09-19T10:41:49;95909.03;;;23.47;58.04
56038;BME280;41907;47.848;9.000;2023-09-19T10:44:21;95909.88;;;23.90;58.18
56038;BME280;41907;47.848;9.000;2023-09-19T10:46:49;95907.91;;;23.59;56.53
56038;BME280;41907;47.848;9.000;2023-09-19T10:49:14;95910.66;;;23.87;56.78
56038;BME280;41907;47.848;9.000;2023-09-19T10:51:42;95904.41;;;24.19;54.02
56038;BME280;41907;47.848;9.000;2023-09-19T10:54:16;95895.31;;;24.85;53.22
56038;BME280;41907;47.848;9.000;2023-09-19T10:56:46;95899.66;;;25.67;51.80
56038;BME280;41907;47.848;9.000;2023-09-19T10:59:18;95900.47;;;25.53;50.77
56038;BME280;41907;47.848;9.000;2023-09-19T11:01:49;95887.13;;;25.73;49.40
56038;BME280;41907;47.848;9.000;2023-09-19T11:04:31;95885.22;;;24.75;48.79
56038;BME280;41907;47.848;9.000;2023-09-19T11:07:06;95891.34;;;25.77;48.74
56038;BME280;41907;47.848;9.000;2023-09-19T11:15:02;95878.53;;;26.60;46.79
56038;BME280;41907;47.848;9.000;2023-09-19T11:17:35;95877.81;;;26.11;44.50
56038;BME280;41907;47.848;9.000;2023-09-19T11:30:48;95864.72;;;25.30;46.34
56038;BME280;41907;47.848;9.000;2023-09-19T11:33:17;95869.88;;;25.13;48.00
56038;BME280;41907;47.848;9.000;2023-09-19T11:43:50;95859.19;;;25.40;46.77
56038;BME280;41907;47.848;9.000;2023-09-19T11:46:17;95848.50;;;25.08;47.13
56038;BME280;41907;47.848;9.000;2023-09-19T11:48:48;95862.19;;;24.94;47.43
56038;BME280;41907;47.848;9.000;2023-09-19T11:51:37;95849.16;;;25.23;46.36
56038;BME280;41907;47.848;9.000;2023-09-19T11:54:04;95857.69;;;25.32;47.92
56038;BME280;41907;47.848;9.000;2023-09-19T11:56:39;95853.13;;;25.18;48.19
56038;BME280;41907;47.848;9.000;2023-09-19T11:59:06;95847.91;;;25.38;49.20
56038;BME280;41907;47.848;9.000;2023-09-19T12:01:33;95854.78;;;24.98;47.93
56038;BME280;41907;47.848;9.000;2023-09-19T12:04:02;95849.63;;;25.14;48.85
56038;BME280;41907;47.848;9.000;2023-09-19T12:06:30;95840.47;;;24.66;49.52
56038;BME280;41907;47.848;9.000;2023-09-19T12:08:57;95836.09;;;24.82;50.41
56038;BME280;41907;47.848;9.000;2023-09-19T12:11:30;95838.69;;;25.14;49.70
56038;BME280;41907;47.848;9.000;2023-09-19T12:13:59;95836.97;;;25.42;49.40
56038;BME280;41907;47.848;9.000;2023-09-19T12:16:26;95836.16;;;25.45;48.71
56038;BME280;41907;47.848;9.000;2023-09-19T12:18:55;95828.94;;;25.17;49.39
56038;BME280;41907;47.848;9.000;2023-09-19T12:21:30;95842.53;;;24.23;50.67
56038;BME280;41907;47.848;9.000;2023-09-19T12:24:06;95832.75;;;24.39;53.01
56038;BME280;41907;47.848;9.000;2023-09-19T12:26:44;95821.44;;;24.48;50.65
56038;BME280;41907;47.848;9.000;2023-09-19T12:29:14;95825.75;;;24.17;51.56
56038;BME280;41907;47.848;9.000;2023-09-19T12:31:55;95821.53;;;23.95;50.95
56038;BME280;41907;47.848;9.000;2023-09-19T12:34:26;95833.22;;;23.67;52.53
56038;BME280;41907;47.848;9.000;2023-09-19T12:39:46;95830.84;;;24.33;53.10
56038;BME280;41907;47.848;9.000;2023-09-19T12:42:15;95833.53;;;24.43;53.59
56038;BME280;41907;47.848;9.000;2023-09-19T12:44:45;95826.59;;;24.03;52.84
56038;BME280;41907;47.848;9.000;2023-09-19T12:47:16;95827.00;;;23.84;53.15
56038;BME280;41907;47.848;9.000;2023-09-19T12:50:15;95821.13;;;23.47;53.69
56038;BME280;41907;47.848;9.000;2023-09-19T12:55:23;95810.63;;;23.42;54.55
56038;BME280;41907;47.848;9.000;2023-09-19T13:00:42;95807.91;;;23.20;57.37
56038;BME280;41907;47.848;9.000;2023-09-19T13:03:18;95804.41;;;23.34;56.83
56038;BME280;41907;47.848;9.000;2023-09-19T13:05:53;95802.47;;;23.27;56.44
56038;BME280;41907;47.848;9.000;2023-09-19T13:08:33;95800.91;;;23.69;55.64
56038;BME280;41907;47.848;9.000;2023-09-19T13:11:16;95793.53;;;23.62;55.82
56038;BME280;41907;47.848;9.000;2023-09-19T13:13:47;95793.53;;;23.73;54.92
56038;BME280;41907;47.848;9.000;2023-09-19T13:16:20;95795.50;;;23.72;54.26
56038;BME280;41907;47.848;9.000;2023-09-19T13:18:52;95786.91;;;23.95;54.91
56038;BME280;41907;47.848;9.000;2023-09-19T13:21:27;95787.31;;;23.80;54.67
56038;BME280;41907;47.848;9.000;2023-09-19T13:23:54;95796.22;;;23.41;55.04
56038;BME280;41907;47.848;9.000;2023-09-19T13:26:27;95793.50;;;23.16;56.97
56038;BME280;41907;47.848;9.000;2023-09-19T13:28:56;95778.34;;;23.36;57.69
56038;BME280;41907;47.848;9.000;2023-09-19T13:31:21;95785.72;;;23.25;57.39
56038;BME280;41907;47.848;9.000;2023-09-19T13:33:48;95781.34;;;22.71;59.92
56038;BME280;41907;47.848;9.000;2023-09-19T13:36:13;95784.56;;;23.02;62.16
56038;BME280;41907;47.848;9.000;2023-09-19T13:38:42;95780.97;;;22.73;61.31
56038;BME280;41907;47.848;9.000;2023-09-19T13:41:13;95773.53;;;22.66;61.57
56038;BME280;41907;47.848;9.000;2023-09-19T13:43:39;95772.47;;;22.88;61.66
56038;BME280;41907;47.848;9.000;2023-09-19T13:46:05;95777.50;;;22.86;62.26
56038;BME280;41907;47.848;9.000;2023-09-19T13:48:33;95771.63;;;22.70;61.36
56038;BME280;41907;47.848;9.000;2023-09-19T13:51:02;95764.56;;;22.51;61.67
56038;BME280;41907;47.848;9.000;2023-09-19T13:53:27;95764.66;;;22.76;61.28